sensor_id;sensor_type;location;lat;lon;timestamp;pressure;altitude;pressure_sealevel;temperature;humidity
49979;BME280;35869;50.990;6.962;2023-01-30T00:01:56;101751.84;;;2.67;100.00
49979;BME280;35869;50.990;6.962;2023-01-30T00:06:56;101736.44;;;2.67;100.00
49979;BME280;35869;50.990;6.962;2023-01-30T00:11:56;101716.78;;;2.68;100.00
49979;BME280;35869;50.990;6.962;2023-01-30T00:16:56;101691.16;;;2.76;100.00
49979;BME280;35869;50.990;6.962;2023-01-30T00:21:56;101698.88;;;2.88;100.00
49979;BME280;35869;50.990;6.962;2023-01-30T00:26:57;101699.75;;;2.96;100.00
49979;BME280;35869;50.990;6.962;2023-01-30T00:31:57;101698.91;;;2.94;100.00
49979;BME280;35869;50.990;6.962;2023-01-30T00:36:57;101688.66;;;3.00;100.00
49979;BME280;35869;50.990;6.962;2023-01-30T00:41:58;101685.22;;;3.10;100.00
49979;BME280;35869;50.990;6.962;2023-01-30T00:46:58;101668.13;;;3.14;100.00
49979;BME280;35869;50.990;6.962;2023-01-30T00:51:59;101665.56;;;3.28;100.00
49979;BME280;35869;50.990;6.962;2023-01-30T00:56:59;101664.72;;;3.30;100.00
49979;BME280;35869;50.990;6.962;2023-01-30T01:01:59;101653.59;;;3.36;100.00
49979;BME280;35869;50.990;6.962;2023-01-30T01:06:59;101633.03;;;3.42;100.00
49979;BME280;35869;50.990;6.962;2023-01-30T01:12:00;101632.16;;;3.43;100.00
49979;BME280;35869;50.990;6.962;2023-01-30T01:17:00;101644.16;;;3.50;100.00
49979;BME280;35869;50.990;6.962;2023-01-30T01:22:00;101630.47;;;3.54;100.00
49979;BME280;35869;50.990;6.962;2023-01-30T01:27:00;101612.47;;;3.65;100.00
49979;BME280;35869;50.990;6.962;2023-01-30T01:32:00;101615.00;;;3.71;100.00
49979;BME280;35869;50.990;6.962;2023-01-30T01:37:00;101604.72;;;3.68;100.00
49979;BME280;35869;50.990;6.962;2023-01-30T01:42:01;101597.88;;;3.71;100.00
49979;BME280;35869;50.990;6.962;2023-01-30T01:47:01;101603.88;;;3.77;100.00
49979;BME280;35869;50.990;6.962;2023-01-30T01:52:02;101588.41;;;3.89;100.00
49979;BME280;35869;50.990;6.962;2023-01-30T01:57:09;101583.28;;;3.84;100.00
49979;BME280;35869;50.990;6.962;2023-01-30T02:02:13;101582.41;;;3.84;100.00
49979;BME280;35869;50.990;6.962;2023-01-30T02:07:15;101564.41;;;3.85;100.00
49979;BME280;35869;50.990;6.962;2023-01-30T02:12:16;101557.50;;;3.96;100.00
49979;BME280;35869;50.990;6.962;2023-01-30T02:17:18;101548.94;;;3.99;100.00
49979;BME280;35869;50.990;6.962;2023-01-30T02:38:32;101524.00;;;4.16;100.00
49979;BME280;35869;50.990;6.962;2023-01-30T02:49:03;101496.63;;;3.97;100.00
49979;BME280;35869;50.990;6.962;2023-01-30T02:54:06;101474.28;;;4.13;100.00
49979;BME280;35869;50.990;6.962;2023-01-30T02:59:06;101472.59;;;4.07;100.00
49979;BME280;35869;50.990;6.962;2023-01-30T03:14:50;101459.66;;;4.15;100.00
49979;BME280;35869;50.990;6.962;2023-01-30T03:19:52;101463.13;;;4.14;100.00
49979;BME280;35869;50.990;6.962;2023-01-30T03:24:53;101458.78;;;4.20;100.00
49979;BME280;35869;50.990;6.962;2023-01-30T03:29:54;101447.63;;;4.21;100.00
49979;BME280;35869;50.990;6.962;2023-01-30T03:34:54;101446.75;;;4.24;100.00
49979;BME280;35869;50.990;6.962;2023-01-30T03:39:54;101447.59;;;4.26;100.00
49979;BME280;35869;50.990;6.962;2023-01-30T03:44:55;101447.63;;;4.24;100.00
49979;BME280;35869;50.990;6.962;2023-01-30T03:49:55;101423.53;;;4.36;100.00
49979;BME280;35869;50.990;6.962;2023-01-30T03:54:55;101416.66;;;4.34;100.00
49979;BME280;35869;50.990;6.962;2023-01-30T03:59:55;101412.38;;;4.33;100.00
49979;BME280;35869;50.990;6.962;2023-01-30T04:04:55;101414.03;;;4.43;100.00
49979;BME280;35869;50.990;6.962;2023-01-30T04:09:56;101385.63;;;4.50;100.00
49979;BME280;35869;50.990;6.962;2023-01-30T04:14:56;101377.22;;;4.33;100.00
49979;BME280;35869;50.990;6.962;2023-01-30T04:19:56;101358.28;;;4.42;100.00
49979;BME280;35869;50.990;6.962;2023-01-30T04:24:56;101366.00;;;4.42;100.00
49979;BME280;35869;50.990;6.962;2023-01-30T04:29:56;101366.91;;;4.36;100.00
49979;BME280;35869;50.990;6.962;2023-01-30T04:34:57;101379.72;;;4.39;100.00
49979;BME280;35869;50.990;6.962;2023-01-30T04:39:57;101370.25;;;4.47;100.00
49979;BME280;35869;50.990;6.962;2023-01-30T04:44:57;101380.53;;;4.47;100.00
49979;BME280;35869;50.990;6.962;2023-01-30T04:49:57;101366.78;;;4.50;100.00
49979;BME280;35869;50.990;6.962;2023-01-30T04:54:57;101373.56;;;4.57;100.00
49979;BME280;35869;50.990;6.962;2023-01-30T04:59:58;101366.00;;;4.42;100.00
49979;BME280;35869;50.990;6.962;2023-01-30T05:04:58;101348.69;;;4.59;100.00
49979;BME280;35869;50.990;6.962;2023-01-30T05:09:58;101361.50;;;4.62;100.00
49979;BME280;35869;50.990;6.962;2023-01-30T05:14:58;101353.84;;;4.59;100.00
49979;BME280;35869;50.990;6.962;2023-01-30T05:19:59;101343.50;;;4.61;100.00
49979;BME280;35869;50.990;6.962;2023-01-30T05:24:59;101355.47;;;4.69;100.00
49979;BME280;35869;50.990;6.962;2023-01-30T05:29:59;101353.75;;;4.67;100.00
49979;BME280;35869;50.990;6.962;2023-01-30T05:34:59;101340.84;;;4.71;100.00
49979;BME280;35869;50.990;6.962;2023-01-30T05:40:00;101339.28;;;4.55;100.00
49979;BME280;35869;50.990;6.962;2023-01-30T05:45:00;101329.84;;;4.54;100.00
49979;BME280;35869;50.990;6.962;2023-01-30T05:50:00;101324.63;;;4.62;100.00
49979;BME280;35869;50.990;6.962;2023-01-30T05:55:00;101322.09;;;4.55;100.00
49979;BME280;35869;50.990;6.962;2023-01-30T06:00:00;101334.97;;;4.59;100.00
49979;BME280;35869;50.990;6.962;2023-01-30T06:05:01;101333.09;;;4.71;100.00
49979;BME280;35869;50.990;6.962;2023-01-30T06:10:01;101334.06;;;4.61;100.00
49979;BME280;35869;50.990;6.962;2023-01-30T06:15:02;101322.84;;;4.67;100.00
49979;BME280;35869;50.990;6.962;2023-01-30T06:20:02;101352.09;;;4.60;100.00
49979;BME280;35869;50.990;6.962;2023-01-30T06:25:03;101338.28;;;4.70;100.00
49979;BME280;35869;50.990;6.962;2023-01-30T06:30:04;101346.00;;;4.71;100.00
49979;BME280;35869;50.990;6.962;2023-01-30T06:35:04;101371.72;;;4.71;100.00
49979;BME280;35869;50.990;6.962;2023-01-30T06:40:05;101356.19;;;4.79;100.00
49979;BME280;35869;50.990;6.962;2023-01-30T06:45:06;101351.91;;;4.78;100.00
49979;BME280;35869;50.990;6.962;2023-01-30T06:50:06;101352.75;;;4.81;100.00
49979;BME280;35869;50.990;6.962;2023-01-30T06:55:08;101356.97;;;4.86;100.00
49979;BME280;35869;50.990;6.962;2023-01-30T07:00:12;101366.56;;;4.73;100.00
49979;BME280;35869;50.990;6.962;2023-01-30T07:05:13;101383.59;;;4.88;100.00
49979;BME280;35869;50.990;6.962;2023-01-30T07:10:13;101392.19;;;4.88;100.00
49979;BME280;35869;50.990;6.962;2023-01-30T07:15:13;101376.63;;;4.96;100.00
49979;BME280;35869;50.990;6.962;2023-01-30T07:20:14;101385.19;;;4.98;100.00
49979;BME280;35869;50.990;6.962;2023-01-30T07:25:14;101383.50;;;4.98;100.00
49979;BME280;35869;50.990;6.962;2023-01-30T07:30:15;101371.38;;;5.03;100.00
49979;BME280;35869;50.990;6.962;2023-01-30T07:35:15;101377.34;;;5.08;100.00
49979;BME280;35869;50.990;6.962;2023-01-30T07:40:16;101384.13;;;5.17;100.00
49979;BME280;35869;50.990;6.962;2023-01-30T07:45:16;101384.94;;;5.21;100.00
49979;BME280;35869;50.990;6.962;2023-01-30T07:50:16;101393.41;;;5.32;100.00
49979;BME280;35869;50.990;6.962;2023-01-30T07:55:17;101396.03;;;5.27;100.00
49979;BME280;35869;50.990;6.962;2023-01-30T08:00:17;101395.94;;;5.35;100.00
49979;BME280;35869;50.990;6.962;2023-01-30T08:05:18;101396.81;;;5.32;100.00
49979;BME280;35869;50.990;6.962;2023-01-30T08:10:18;101399.31;;;5.42;100.00
49979;BME280;35869;50.990;6.962;2023-01-30T08:15:18;101380.38;;;5.43;100.00
49979;BME280;35869;50.990;6.962;2023-01-30T08:20:19;101392.28;;;5.53;100.00
49979;BME280;35869;50.990;6.962;2023-01-30T08:25:20;101401.69;;;5.57;100.00
49979;BME280;35869;50.990;6.962;2023-01-30T08:30:21;101414.66;;;5.51;100.00
49979;BME280;35869;50.990;6.962;2023-01-30T08:35:21;101423.91;;;5.67;100.00
49979;BME280;35869;50.990;6.962;2023-01-30T08:40:21;101440.25;;;5.66;100.00
49979;BME280;35869;50.990;6.962;2023-01-30T08:45:21;101421.31;;;5.70;100.00
49979;BME280;35869;50.990;6.962;2023-01-30T08:50:22;101425.53;;;5.76;100.00
49979;BME280;35869;50.990;6.962;2023-01-30T08:55:22;101423.84;;;5.72;100.00
49979;BME280;35869;50.990;6.962;2023-01-30T09:00:22;101422.97;;;5.73;100.00
49979;BME280;35869;50.990;6.962;2023-01-30T09:05:23;101438.47;;;5.71;100.00
49979;BME280;35869;50.990;6.962;2023-01-30T09:10:24;101431.44;;;5.82;100.00
49979;BME280;35869;50.990;6.962;2023-01-30T09:15:24;101434.97;;;5.77;100.00
49979;BME280;35869;50.990;6.962;2023-01-30T09:20:24;101439.25;;;5.78;100.00
49979;BME280;35869;50.990;6.962;2023-01-30T09:25:24;101454.63;;;5.87;100.00
49979;BME280;35869;50.990;6.962;2023-01-30T09:30:25;101439.94;;;5.91;100.00
49979;BME280;35869;50.990;6.962;2023-01-30T09:35:25;101426.19;;;5.92;100.00
49979;BME280;35869;50.990;6.962;2023-01-30T09:40:27;101435.72;;;5.86;100.00
49979;BME280;35869;50.990;6.962;2023-01-30T09:45:50;101442.50;;;5.92;100.00
49979;BME280;35869;50.990;6.962;2023-01-30T09:51:20;101446.81;;;5.93;100.00
49979;BME280;35869;50.990;6.962;2023-01-30T09:56:25;101441.59;;;5.96;100.00
49979;BME280;35869;50.990;6.962;2023-01-30T10:01:50;101454.56;;;5.90;100.00
49979;BME280;35869;50.990;6.962;2023-01-30T10:07:04;101454.44;;;6.02;100.00
49979;BME280;35869;50.990;6.962;2023-01-30T10:12:30;101461.31;;;6.02;100.00
49979;BME280;35869;50.990;6.962;2023-01-30T10:17:42;101465.59;;;6.04;100.00
49979;BME280;35869;50.990;6.962;2023-01-30T10:22:58;101475.66;;;6.23;100.00
49979;BME280;35869;50.990;6.962;2023-01-30T10:28:10;101508.28;;;6.27;100.00
49979;BME280;35869;50.990;6.962;2023-01-30T10:33:21;101474.09;;;6.11;100.00
49979;BME280;35869;50.990;6.962;2023-01-30T10:38:32;101484.34;;;6.17;100.00
49979;BME280;35869;50.990;6.962;2023-01-30T10:43:39;101480.06;;;6.14;100.00
49979;BME280;35869;50.990;6.962;2023-01-30T10:49:08;101477.22;;;6.34;100.00
49979;BME280;35869;50.990;6.962;2023-01-30T10:54:19;101473.09;;;6.21;100.00
49979;BME280;35869;50.990;6.962;2023-01-30T10:59:25;101494.50;;;6.29;100.00
49979;BME280;35869;50.990;6.962;2023-01-30T11:09:44;101491.03;;;6.30;100.00
49979;BME280;35869;50.990;6.962;2023-01-30T11:14:55;101488.34;;;6.38;100.00
49979;BME280;35869;50.990;6.962;2023-01-30T11:19:56;101492.72;;;6.33;100.00
49979;BME280;35869;50.990;6.962;2023-01-30T11:25:05;101484.06;;;6.37;100.00
49979;BME280;35869;50.990;6.962;2023-01-30T11:30:12;101486.69;;;6.32;100.00
49979;BME280;35869;50.990;6.962;2023-01-30T11:45:17;101479.72;;;6.39;100.00
49979;BME280;35869;50.990;6.962;2023-01-30T11:50:18;101466.88;;;6.34;100.00
49979;BME280;35869;50.990;6.962;2023-01-30T11:55:20;101479.84;;;6.30;100.00
49979;BME280;35869;50.990;6.962;2023-01-30T12:00:23;101471.97;;;6.39;100.00
49979;BME280;35869;50.990;6.962;2023-01-30T12:10:30;101474.25;;;6.59;98.24
49979;BME280;35869;50.990;6.962;2023-01-30T12:15:32;101476.94;;;6.53;98.63
49979;BME280;35869;50.990;6.962;2023-01-30T12:31:24;101482.22;;;6.44;100.00
49979;BME280;35869;50.990;6.962;2023-01-30T12:36:44;101494.28;;;6.43;98.89
49979;BME280;35869;50.990;6.962;2023-01-30T12:42:07;101490.94;;;6.36;99.69
49979;BME280;35869;50.990;6.962;2023-01-30T12:52:44;101497.44;;;6.63;96.41
49979;BME280;35869;50.990;6.962;2023-01-30T12:57:59;101489.16;;;6.41;98.72
49979;BME280;35869;50.990;6.962;2023-01-30T13:13:47;101501.53;;;6.77;97.07
49979;BME280;35869;50.990;6.962;2023-01-30T13:18:54;101500.78;;;6.70;95.80
49979;BME280;35869;50.990;6.962;2023-01-30T13:24:20;101515.63;;;6.56;94.49
49979;BME280;35869;50.990;6.962;2023-01-30T13:29:29;101512.84;;;6.70;95.39
49979;BME280;35869;50.990;6.962;2023-01-30T13:34:33;101539.50;;;6.72;95.92
49979;BME280;35869;50.990;6.962;2023-01-30T13:39:36;101549.75;;;6.76;95.41
49979;BME280;35869;50.990;6.962;2023-01-30T13:44:41;101562.75;;;6.72;94.49
49979;BME280;35869;50.990;6.962;2023-01-30T14:00:18;101575.69;;;6.70;93.61
49979;BME280;35869;50.990;6.962;2023-01-30T14:10:56;101589.34;;;6.78;92.09
49979;BME280;35869;50.990;6.962;2023-01-30T14:16:00;101591.88;;;6.81;91.74
49979;BME280;35869;50.990;6.962;2023-01-30T14:21:17;101590.16;;;6.82;91.96
49979;BME280;35869;50.990;6.962;2023-01-30T14:31:48;101606.47;;;6.84;92.80
49979;BME280;35869;50.990;6.962;2023-01-30T14:36:50;101615.22;;;6.74;92.11
49979;BME280;35869;50.990;6.962;2023-01-30T14:42:11;101603.63;;;7.04;91.97
49979;BME280;35869;50.990;6.962;2023-01-30T14:47:18;101620.28;;;6.83;91.89
49979;BME280;35869;50.990;6.962;2023-01-30T14:52:48;101629.03;;;6.73;91.49
49979;BME280;35869;50.990;6.962;2023-01-30T14:57:56;101632.38;;;6.79;88.57
49979;BME280;35869;50.990;6.962;2023-01-30T15:03:01;101644.31;;;6.89;93.39
49979;BME280;35869;50.990;6.962;2023-01-30T15:08:09;101643.75;;;6.69;89.42
49979;BME280;35869;50.990;6.962;2023-01-30T15:18:35;101662.44;;;6.85;89.24
49979;BME280;35869;50.990;6.962;2023-01-30T15:23:55;101687.66;;;6.69;88.84
49979;BME280;35869;50.990;6.962;2023-01-30T15:29:51;101683.22;;;6.77;89.14
49979;BME280;35869;50.990;6.962;2023-01-30T15:34:29;101710.81;;;6.75;88.32
49979;BME280;35869;50.990;6.962;2023-01-30T15:39:30;101717.81;;;6.65;90.51
49979;BME280;35869;50.990;6.962;2023-01-30T15:44:51;101720.16;;;6.85;92.30
49979;BME280;35869;50.990;6.962;2023-01-30T15:49:58;101730.75;;;6.62;92.43
49979;BME280;35869;50.990;6.962;2023-01-30T15:55:00;101734.28;;;6.57;91.96
49979;BME280;35869;50.990;6.962;2023-01-30T16:00:05;101746.50;;;6.43;93.51
49979;BME280;35869;50.990;6.962;2023-01-30T16:05:14;101764.63;;;6.39;93.40
49979;BME280;35869;50.990;6.962;2023-01-30T16:10:18;101762.81;;;6.45;92.62
49979;BME280;35869;50.990;6.962;2023-01-30T16:15:32;101765.41;;;6.46;93.04
49979;BME280;35869;50.990;6.962;2023-01-30T16:21:04;101777.53;;;6.39;93.04
49979;BME280;35869;50.990;6.962;2023-01-30T16:26:08;101784.47;;;6.34;92.17
49979;BME280;35869;50.990;6.962;2023-01-30T16:31:12;101792.19;;;6.33;94.01
49979;BME280;35869;50.990;6.962;2023-01-30T16:41:28;101796.56;;;6.26;92.67
49979;BME280;35869;50.990;6.962;2023-01-30T16:46:43;101806.97;;;6.22;92.18
49979;BME280;35869;50.990;6.962;2023-01-30T16:51:45;101820.72;;;6.19;91.09
49979;BME280;35869;50.990;6.962;2023-01-30T16:56:49;101831.94;;;6.15;93.87
49979;BME280;35869;50.990;6.962;2023-01-30T17:01:50;101842.31;;;6.07;93.07
49979;BME280;35869;50.990;6.962;2023-01-30T17:07:28;101853.59;;;5.97;93.39
49979;BME280;35869;50.990;6.962;2023-01-30T17:12:37;101865.59;;;6.03;92.66
49979;BME280;35869;50.990;6.962;2023-01-30T17:17:42;101875.91;;;6.03;92.48
49979;BME280;35869;50.990;6.962;2023-01-30T17:22:45;101873.34;;;6.01;91.81
49979;BME280;35869;50.990;6.962;2023-01-30T17:27:46;101878.56;;;5.87;93.30
49979;BME280;35869;50.990;6.962;2023-01-30T17:32:47;101888.03;;;5.93;92.64
49979;BME280;35869;50.990;6.962;2023-01-30T17:37:47;101896.63;;;5.94;92.63
49979;BME280;35869;50.990;6.962;2023-01-30T17:42:47;101906.94;;;5.98;92.21
49979;BME280;35869;50.990;6.962;2023-01-30T17:47:47;101914.72;;;5.81;92.57
49979;BME280;35869;50.990;6.962;2023-01-30T17:52:47;101924.16;;;5.84;94.05
49979;BME280;35869;50.990;6.962;2023-01-30T17:57:48;101921.59;;;5.84;95.56
49979;BME280;35869;50.990;6.962;2023-01-30T18:02:48;101925.91;;;5.82;92.90
49979;BME280;35869;50.990;6.962;2023-01-30T18:07:48;101933.63;;;5.80;92.74
49979;BME280;35869;50.990;6.962;2023-01-30T18:12:48;101938.81;;;5.74;93.74
49979;BME280;35869;50.990;6.962;2023-01-30T18:17:50;101954.28;;;5.74;94.51
49979;BME280;35869;50.990;6.962;2023-01-30T18:22:50;101964.63;;;5.77;92.97
49979;BME280;35869;50.990;6.962;2023-01-30T18:27:50;101973.19;;;5.79;93.49
49979;BME280;35869;50.990;6.962;2023-01-30T18:32:51;101970.66;;;5.75;93.90
49979;BME280;35869;50.990;6.962;2023-01-30T18:37:51;101979.25;;;5.77;94.58
49979;BME280;35869;50.990;6.962;2023-01-30T18:42:51;101981.00;;;5.62;95.40
49979;BME280;35869;50.990;6.962;2023-01-30T18:47:51;101977.59;;;5.59;94.46
49979;BME280;35869;50.990;6.962;2023-01-30T18:52:52;101980.19;;;5.48;93.46
49979;BME280;35869;50.990;6.962;2023-01-30T18:57:52;101976.75;;;5.51;94.02
49979;BME280;35869;50.990;6.962;2023-01-30T19:02:52;101988.81;;;5.43;95.60
49979;BME280;35869;50.990;6.962;2023-01-30T19:07:52;101995.69;;;5.36;95.30
49979;BME280;35869;50.990;6.962;2023-01-30T19:12:52;102010.31;;;5.32;94.87
49979;BME280;35869;50.990;6.962;2023-01-30T19:17:53;102002.56;;;5.32;95.54
49979;BME280;35869;50.990;6.962;2023-01-30T19:22:53;102016.34;;;5.19;95.95
49979;BME280;35869;50.990;6.962;2023-01-30T19:27:53;102024.97;;;5.17;97.42
49979;BME280;35869;50.990;6.962;2023-01-30T19:32:53;102025.78;;;5.09;97.89
49979;BME280;35869;50.990;6.962;2023-01-30T19:37:54;102039.53;;;5.19;97.43
49979;BME280;35869;50.990;6.962;2023-01-30T19:42:54;102053.28;;;5.24;96.18
49979;BME280;35869;50.990;6.962;2023-01-30T19:47:55;102058.47;;;5.17;97.71
49979;BME280;35869;50.990;6.962;2023-01-30T19:52:55;102066.19;;;5.18;97.18
49979;BME280;35869;50.990;6.962;2023-01-30T19:57:55;102069.63;;;5.02;98.94
49979;BME280;35869;50.990;6.962;2023-01-30T20:02:56;102065.34;;;5.12;98.24
49979;BME280;35869;50.990;6.962;2023-01-30T20:07:56;102074.75;;;5.08;97.47
49979;BME280;35869;50.990;6.962;2023-01-30T20:12:56;102085.94;;;5.08;97.71
49979;BME280;35869;50.990;6.962;2023-01-30T20:17:56;102078.22;;;5.05;97.74
49979;BME280;35869;50.990;6.962;2023-01-30T20:22:58;102085.94;;;5.07;97.59
49979;BME280;35869;50.990;6.962;2023-01-30T20:27:58;102096.22;;;5.04;98.54
49979;BME280;35869;50.990;6.962;2023-01-30T20:32:58;102099.69;;;5.00;97.49
49979;BME280;35869;50.990;6.962;2023-01-30T20:37:59;102104.84;;;4.98;98.36
49979;BME280;35869;50.990;6.962;2023-01-30T20:42:59;102110.00;;;4.98;98.09
49979;BME280;35869;50.990;6.962;2023-01-30T20:47:59;102099.66;;;4.89;98.24
49979;BME280;35869;50.990;6.962;2023-01-30T20:52:59;102106.53;;;4.87;99.13
49979;BME280;35869;50.990;6.962;2023-01-30T20:57:59;102115.09;;;4.85;98.93
49979;BME280;35869;50.990;6.962;2023-01-30T21:03:00;102121.09;;;4.79;98.77
49979;BME280;35869;50.990;6.962;2023-01-30T21:08:00;102127.13;;;4.78;99.31
49979;BME280;35869;50.990;6.962;2023-01-30T21:13:00;102131.41;;;4.76;99.74
49979;BME280;35869;50.990;6.962;2023-01-30T21:18:00;102144.28;;;4.70;100.00
49979;BME280;35869;50.990;6.962;2023-01-30T21:23:00;102140.00;;;4.75;100.00
49979;BME280;35869;50.990;6.962;2023-01-30T21:28:01;102143.41;;;4.72;100.00
49979;BME280;35869;50.990;6.962;2023-01-30T21:33:01;102145.97;;;4.74;100.00
49979;BME280;35869;50.990;6.962;2023-01-30T21:38:01;102161.47;;;4.78;100.00
49979;BME280;35869;50.990;6.962;2023-01-30T21:43:01;102151.13;;;4.72;100.00
49979;BME280;35869;50.990;6.962;2023-01-30T21:48:01;102164.00;;;4.68;100.00
49979;BME280;35869;50.990;6.962;2023-01-30T21:53:02;102174.28;;;4.60;100.00
49979;BME280;35869;50.990;6.962;2023-01-30T21:58:02;102174.28;;;4.60;100.00
49979;BME280;35869;50.990;6.962;2023-01-30T22:03:02;102173.44;;;4.58;100.00
49979;BME280;35869;50.990;6.962;2023-01-30T22:08:03;102175.06;;;4.42;100.00
49979;BME280;35869;50.990;6.962;2023-01-30T22:13:03;102178.53;;;4.46;100.00
49979;BME280;35869;50.990;6.962;2023-01-30T22:18:04;102181.03;;;4.35;100.00
49979;BME280;35869;50.990;6.962;2023-01-30T22:23:04;102181.00;;;4.34;100.00
49979;BME280;35869;50.990;6.962;2023-01-30T22:28:04;102187.09;;;4.46;100.00
49979;BME280;35869;50.990;6.962;2023-01-30T22:33:04;102190.47;;;4.35;100.00
49979;BME280;35869;50.990;6.962;2023-01-30T22:38:04;102194.75;;;4.31;100.00
49979;BME280;35869;50.990;6.962;2023-01-30T22:43:05;102199.09;;;4.43;100.00
49979;BME280;35869;50.990;6.962;2023-01-30T22:48:05;102201.69;;;4.46;100.00
49979;BME280;35869;50.990;6.962;2023-01-30T22:53:05;102199.97;;;4.46;100.00
49979;BME280;35869;50.990;6.962;2023-01-30T22:58:05;102206.78;;;4.35;100.00
49979;BME280;35869;50.990;6.962;2023-01-30T23:03:05;102209.41;;;4.50;100.00
49979;BME280;35869;50.990;6.962;2023-01-30T23:08:05;102203.38;;;4.42;100.00
49979;BME280;35869;50.990;6.962;2023-01-30T23:13:06;102205.09;;;4.45;100.00
49979;BME280;35869;50.990;6.962;2023-01-30T23:18:08;102199.06;;;4.37;100.00
49979;BME280;35869;50.990;6.962;2023-01-30T23:23:09;102205.13;;;4.51;100.00
49979;BME280;35869;50.990;6.962;2023-01-30T23:28:09;102204.28;;;4.55;100.00
49979;BME280;35869;50.990;6.962;2023-01-30T23:33:09;102199.13;;;4.47;100.00
49979;BME280;35869;50.990;6.962;2023-01-30T23:38:10;102200.78;;;4.39;100.00
49979;BME280;35869;50.990;6.962;2023-01-30T23:43:10;102197.44;;;4.52;100.00
49979;BME280;35869;50.990;6.962;2023-01-30T23:48:11;102200.00;;;4.54;100.00
49979;BME280;35869;50.990;6.962;2023-01-30T23:53:11;102196.56;;;4.52;100.00
49979;BME280;35869;50.990;6.962;2023-01-30T23:58:11;102205.16;;;4.54;100.00
